Val-d'Or Airport
CYVO : rendu visible

Aérodrome :











RETROUVEZ-NOUS SUR...

 
LOGIN :

S'inscrire | Disclaimer

   EN    FR    IT 

 









Légende :    VFR   VFR Marginal   IFR   IFR Intensif   IFR Très Intensif
Visi : 
Plafond : 
>= 8 km
>= 3000ft
5 à 8 km
1000 à 3000 ft
1500m à 5 km
500 à 1000 ft
800 à 1500m
200 à 500 ft
< 800m
< 200 ft
Symboles :   Orages  Brouillard  Fortes neiges  Fortes précipitations  Vent > 20 kt






- Altitude de l'aérodrome : 1107 ft
- Code IATA : YVO


CYVO - Val-d'Or

DERNIER METAR :
  • 060400Z AUTO 21004KT 9SM CLR M01/M06 A3002 RMK SLP188

METARs EXPIRÉS :
  • 060300Z AUTO 20003KT 9SM CLR M02/M06 A3002 RMK SLP189
  • 060200Z 26003KT 15SM SKC M01/M07 A3003 RMK LAST STFD OBS/NEXT 061000UTC SLP191

TAF TAF CYVO
Valide du 06 à 00h jusqu'au 06 à 12h UTC


052338Z 0600/0612 32007KT P6SM FEW030
BECMG 0600/0602 26005KT
FM061000 24005KT P6SM BKN080 RMK NXT FCST BY 060600Z



MET'MAP, la Météo Aéronautique d'un coup d'oeil ! - Copyright ORBIFLY Décembre 2007 - Disclaimer

ORBIFLY MET'MAP TEAM :

Programmation & Développement : Alexandra Zaïnal
Sur une idée originale de : Baudouin d'Aumeries
Assistance à la programmation : Marc-Olivier Méhu
Soutien technique & logistique : Manuel Goepfert

Contact : metmap@orbifly.com




SOURCES & CREDITS :

   NOAA       Earth
Advisory